Aviation Digital Data Service (ADDS)

Output produced by METARs form (1515 UTC 25 October 2014)
found at http://aviationweather.gov/adds/metars/
 
KPSM 251121Z 2512/2612 23006KT P6SM BKN200 
     FM260300 27007KT P6SM BKN050 OVC120